Time;durP1;ratioP1;P1;durP2;ratioP2;P2;SDS_P1;SDS_P2;PMS_P1;PMS_P2;Temp;Humidity;BMP_temperature;BMP_pressure;BME280_temperature;BME280_humidity;BME280_pressure;Samples;Min_cycle;Max_cycle;Signal;HPM_P1;HPM_P2
2023/08/07 00:00:31;;;;;;;18.08;5.28;;;;;;;13.15;100.00;101232.91;5016696;28;20037;-83
2023/08/07 00:02:56;;;;;;;19.50;4.95;;;;;;;13.13;100.00;101220.63;5016882;28;20090;-82
2023/08/07 00:05:22;;;;;;;14.45;5.32;;;;;;;13.16;100.00;101231.94;5017143;28;20021;-83
2023/08/07 00:07:47;;;;;;;6.97;2.60;;;;;;;13.24;100.00;101228.78;5017004;28;20036;-83
2023/08/07 00:10:15;;;;;;;12.02;5.05;;;;;;;13.13;100.00;101221.47;5018169;28;20112;-82
2023/08/07 00:12:41;;;;;;;17.65;5.47;;;;;;;13.21;100.00;101225.44;5017839;28;20078;-83
2023/08/07 00:15:07;;;;;;;19.63;5.85;;;;;;;13.05;100.00;101201.59;5035271;28;20025;-83
2023/08/07 00:17:32;;;;;;;15.88;5.50;;;;;;;13.16;100.00;101223.09;5017214;28;20473;-83
2023/08/07 00:19:58;;;;;;;16.25;5.43;;;;;;;13.11;100.00;101231.41;5016850;28;20026;-82
2023/08/07 00:22:25;;;;;;;13.80;5.22;;;;;;;13.18;100.00;101238.06;5034518;28;20022;-83
2023/08/07 00:24:50;;;;;;;15.57;5.10;;;;;;;13.19;100.00;101241.56;5016266;28;20017;-82
2023/08/07 00:27:15;;;;;;;15.50;5.20;;;;;;;13.08;100.00;101226.25;5016246;28;20032;-82
2023/08/07 00:29:41;;;;;;;13.05;4.60;;;;;;;13.19;100.00;101239.75;5033983;28;20036;-82
2023/08/07 00:32:06;;;;;;;17.08;4.40;;;;;;;13.16;100.00;101253.31;5033845;28;20036;-83
2023/08/07 00:34:32;;;;;;;15.82;6.00;;;;;;;13.09;100.00;101254.69;5016249;28;20412;-83
2023/08/07 00:37:02;;;;;;;13.68;5.15;;;;;;;13.12;100.00;101262.50;5016332;28;20029;-83
2023/08/07 00:39:32;;;;;;;13.70;5.07;;;;;;;12.97;100.00;101234.16;5015849;28;20075;-82
2023/08/07 00:42:01;;;;;;;16.27;5.57;;;;;;;13.15;100.00;101253.44;5034255;28;20025;-83
2023/08/07 00:44:26;;;;;;;14.45;4.88;;;;;;;12.95;100.00;101244.94;5034196;28;20044;-83
2023/08/07 00:46:52;;;;;;;13.82;4.63;;;;;;;13.00;100.00;101246.44;5015910;28;20046;-83
2023/08/07 00:49:19;;;;;;;14.20;5.10;;;;;;;12.92;100.00;101244.28;5012666;28;20473;-83
2023/08/07 00:51:45;;;;;;;16.25;4.90;;;;;;;13.07;100.00;101261.09;4996298;28;20465;-83
2023/08/07 00:54:17;;;;;;;12.10;4.72;;;;;;;13.00;100.00;101274.00;5012397;28;20033;-83
2023/08/07 00:56:43;;;;;;;11.98;4.95;;;;;;;12.98;100.00;101262.56;5012786;28;20030;-83
2023/08/07 00:59:12;;;;;;;11.13;4.57;;;;;;;12.98;100.00;101272.41;5012727;28;20022;-83
2023/08/07 01:01:37;;;;;;;9.53;4.90;;;;;;;13.01;100.00;101261.50;5012278;28;20022;-83
2023/08/07 01:04:03;;;;;;;15.90;5.13;;;;;;;12.98;100.00;101256.38;5012476;28;20045;-82
2023/08/07 01:06:31;;;;;;;10.10;5.00;;;;;;;12.89;100.00;101234.66;4996502;28;20029;-83
2023/08/07 01:08:57;;;;;;;10.65;4.55;;;;;;;12.98;100.00;101251.03;5012131;28;20080;-83
2023/08/07 01:11:53;;;;;;;18.98;5.13;;;;;;;12.93;100.00;101249.50;5012793;28;20030;-83
2023/08/07 01:14:18;;;;;;;12.10;5.53;;;;;;;12.96;100.00;101253.78;5013642;28;20393;-83
2023/08/07 01:17:04;;;;;;;10.88;4.93;;;;;;;12.89;100.00;101245.34;5013947;28;20030;-84
2023/08/07 01:19:33;;;;;;;13.68;5.07;;;;;;;12.95;100.00;101260.94;5012475;28;20018;-83
2023/08/07 01:22:15;;;;;;;14.75;4.72;;;;;;;13.04;100.00;101258.63;5013713;28;20490;-83
2023/08/07 01:24:45;;;;;;;14.52;4.88;;;;;;;13.03;100.00;101248.88;4995382;28;20545;-83
2023/08/07 01:27:36;;;;;;;11.07;4.55;;;;;;;13.08;100.00;101260.97;5013677;28;20079;-83
2023/08/07 01:30:28;;;;;;;14.05;4.30;;;;;;;13.09;100.00;101264.53;5011930;28;20065;-83
2023/08/07 01:33:32;;;;;;;17.60;4.70;;;;;;;13.11;100.00;101267.94;4995866;28;20108;-83
2023/08/07 01:36:06;;;;;;;12.15;2.38;;;;;;;13.13;100.00;101271.38;4999973;28;20042;-83
2023/08/07 01:38:33;;;;;;;21.48;4.95;;;;;;;13.00;100.00;101275.78;4995403;28;20021;-83
2023/08/07 01:41:00;;;;;;;11.48;4.50;;;;;;;12.73;100.00;101236.63;5011627;28;20049;-83
2023/08/07 01:43:31;;;;;;;11.13;4.60;;;;;;;13.04;100.00;101285.34;4995621;28;20030;-83
2023/08/07 01:45:59;;;;;;;14.18;5.20;;;;;;;12.93;100.00;101281.53;5013119;28;20104;-83
2023/08/07 01:48:25;;;;;;;12.23;4.82;;;;;;;12.89;100.00;101280.06;4997345;28;20029;-83
2023/08/07 01:50:53;;;;;;;16.05;5.05;;;;;;;12.87;100.00;101275.75;4995563;28;20034;-83
2023/08/07 01:53:18;;;;;;;5.93;3.08;;;;;;;13.03;100.00;101283.59;4995367;28;20124;-83
2023/08/07 01:55:44;;;;;;;14.05;4.45;;;;;;;12.90;100.00;101287.09;5013141;28;20536;-84
2023/08/07 01:58:09;;;;;;;12.63;4.75;;;;;;;12.84;100.00;101297.31;5013220;28;20446;-83
2023/08/07 02:00:35;;;;;;;16.23;4.80;;;;;;;12.86;100.00;101290.09;5013332;28;20030;-83
2023/08/07 02:03:00;;;;;;;14.30;5.03;;;;;;;12.88;100.00;101294.38;5012799;28;20064;-83
2023/08/07 02:05:26;;;;;;;16.42;4.35;;;;;;;12.85;100.00;101291.91;4995470;28;20366;-83
2023/08/07 02:07:51;;;;;;;19.58;5.38;;;;;;;12.84;100.00;101283.97;4995271;28;20026;-83
2023/08/07 02:10:22;;;;;;;11.50;2.65;;;;;;;12.88;100.00;101291.69;5012582;28;20036;-83
2023/08/07 02:12:49;;;;;;;10.63;2.25;;;;;;;12.88;100.00;101286.34;4996980;28;20034;-83
2023/08/07 02:15:14;;;;;;;12.90;4.65;;;;;;;12.86;100.00;101300.75;5016793;28;20030;-83
2023/08/07 02:17:41;;;;;;;11.48;4.75;;;;;;;12.87;100.00;101297.13;5017103;28;20097;-83
2023/08/07 02:20:07;;;;;;;6.05;2.55;;;;;;;12.87;100.00;101284.63;5016878;28;20144;-83
2023/08/07 02:22:32;;;;;;;15.45;4.55;;;;;;;12.81;100.00;101301.03;5016731;28;20026;-83
2023/08/07 02:25:00;;;;;;;16.55;5.75;;;;;;;12.85;100.00;101312.38;5016456;28;20037;-83
2023/08/07 02:27:25;;;;;;;10.32;5.05;;;;;;;12.88;100.00;101299.69;4999085;28;20028;-83
2023/08/07 02:29:51;;;;;;;16.67;5.40;;;;;;;12.84;100.00;101298.16;5015602;28;20401;-83
2023/08/07 02:32:19;;;;;;;16.08;5.40;;;;;;;12.79;100.00;101283.41;4998807;28;20034;-83
2023/08/07 02:34:45;;;;;;;12.38;4.75;;;;;;;12.83;100.00;101287.63;5016680;28;20034;-83
2023/08/07 02:37:10;;;;;;;8.45;2.80;;;;;;;12.85;100.00;101273.22;4998853;28;20087;-83
2023/08/07 02:39:36;;;;;;;17.85;4.65;;;;;;;12.71;100.00;101259.91;4998573;28;20363;-83
2023/08/07 02:42:01;;;;;;;19.20;5.45;;;;;;;12.86;100.00;101285.59;5016426;28;20025;-83
2023/08/07 02:44:26;;;;;;;13.60;4.97;;;;;;;12.84;100.00;101275.97;5016347;28;20053;-83
2023/08/07 02:46:54;;;;;;;20.33;5.60;;;;;;;12.88;100.00;101290.81;4998757;28;20132;-82
2023/08/07 02:49:22;;;;;;;13.27;5.15;;;;;;;12.89;100.00;101284.53;5029079;28;20197;-82
2023/08/07 02:51:48;;;;;;;13.38;4.88;;;;;;;12.86;100.00;101282.91;5018260;28;20029;-82
2023/08/07 02:54:13;;;;;;;15.88;4.43;;;;;;;12.86;100.00;101279.41;5017676;28;20037;-82
2023/08/07 02:56:38;;;;;;;6.95;2.85;;;;;;;12.99;100.00;101280.28;5035762;28;20112;-82
2023/08/07 02:59:05;;;;;;;13.30;4.28;;;;;;;12.96;100.00;101286.69;5017930;28;20097;-82
2023/08/07 03:01:30;;;;;;;13.77;4.75;;;;;;;12.91;100.00;101286.16;5017933;28;20034;-82
2023/08/07 03:03:56;;;;;;;13.48;4.68;;;;;;;12.90;100.00;101283.56;5035672;28;20030;-82
2023/08/07 03:06:23;;;;;;;15.43;5.38;;;;;;;12.83;100.00;101268.94;5018095;28;20033;-82
2023/08/07 03:08:49;;;;;;;8.15;4.30;;;;;;;12.97;100.00;101279.56;5034970;28;20021;-82
2023/08/07 03:11:14;;;;;;;14.25;5.05;;;;;;;12.97;100.00;101300.91;5035172;28;20036;-82
2023/08/07 03:13:44;;;;;;;16.23;4.70;;;;;;;12.90;100.00;101289.75;5035819;28;20032;-83
2023/08/07 03:16:09;;;;;;;13.18;5.03;;;;;;;12.89;100.00;101279.19;5017962;28;20039;-82
2023/08/07 03:18:35;;;;;;;15.85;5.63;;;;;;;13.02;100.00;101300.59;5017728;28;20021;-82
2023/08/07 03:21:00;;;;;;;12.60;4.90;;;;;;;13.00;100.00;101295.38;5017557;28;20128;-82
2023/08/07 03:23:28;;;;;;;12.50;4.63;;;;;;;12.92;100.00;101284.34;5034817;28;20397;-82
2023/08/07 03:26:10;;;;;;;9.77;4.68;;;;;;;13.04;100.00;101302.22;5016909;28;20028;-82
2023/08/07 03:28:36;;;;;;;3.95;2.47;;;;;;;13.12;100.00;101294.56;5035335;28;20430;-82
2023/08/07 03:31:02;;;;;;;12.63;4.88;;;;;;;13.03;100.00;101280.94;5017179;28;20021;-82
2023/08/07 03:33:27;;;;;;;11.45;4.78;;;;;;;12.93;100.00;101267.34;5017345;28;20515;-82
2023/08/07 03:35:55;;;;;;;12.07;5.10;;;;;;;12.94;100.00;101264.59;5017397;28;20047;-82
2023/08/07 03:38:22;;;;;;;13.10;5.30;;;;;;;12.96;100.00;101270.66;5034507;28;20481;-83
2023/08/07 03:40:47;;;;;;;12.02;5.53;;;;;;;12.92;100.00;101265.66;5035104;28;20115;-82
2023/08/07 03:43:12;;;;;;;13.55;5.15;;;;;;;12.94;100.00;101261.91;5017083;28;20239;-82
2023/08/07 03:45:38;;;;;;;19.05;5.30;;;;;;;12.87;100.00;101255.25;5017040;28;20048;-82
2023/08/07 03:48:05;;;;;;;15.23;5.50;;;;;;;12.91;100.00;101263.91;5034731;28;20042;-82
2023/08/07 03:50:30;;;;;;;13.25;4.63;;;;;;;12.97;100.00;101279.56;5017065;28;20037;-82
2023/08/07 03:52:56;;;;;;;11.57;4.90;;;;;;;12.94;100.00;101269.06;5017071;28;20032;-83
2023/08/07 03:55:21;;;;;;;14.70;5.13;;;;;;;12.93;100.00;101265.53;5033958;28;20494;-82
2023/08/07 03:57:47;;;;;;;16.35;6.05;;;;;;;12.99;100.00;101268.75;5034987;28;20025;-82
2023/08/07 04:00:15;;;;;;;14.40;5.93;;;;;;;13.01;100.00;101272.19;5016841;28;20037;-82
2023/08/07 04:02:40;;;;;;;15.13;5.82;;;;;;;13.00;100.00;101262.44;5034863;28;20392;-82
2023/08/07 04:05:07;;;;;;;15.82;6.00;;;;;;;13.06;100.00;101281.63;5016982;28;20108;-82
2023/08/07 04:07:33;;;;;;;13.35;6.13;;;;;;;13.07;100.00;101282.47;5034810;28;20460;-82
2023/08/07 04:09:58;;;;;;;13.18;5.55;;;;;;;13.08;100.00;101292.19;5016540;28;20025;-82
2023/08/07 04:12:23;;;;;;;11.52;5.07;;;;;;;13.10;100.00;101282.25;5034889;28;20021;-82
2023/08/07 04:14:51;;;;;;;10.27;3.75;;;;;;;13.11;100.00;101279.47;5018087;28;20449;-82
2023/08/07 04:17:17;;;;;;;16.35;5.65;;;;;;;12.97;100.00;101276.88;5017545;28;20048;-82
2023/08/07 04:19:43;;;;;;;15.82;5.38;;;;;;;12.95;100.00;101276.97;5034926;28;20036;-82
2023/08/07 04:22:08;;;;;;;15.63;5.55;;;;;;;13.00;100.00;101292.69;5035030;28;20397;-82
2023/08/07 04:24:33;;;;;;;14.23;5.22;;;;;;;13.09;100.00;101296.59;5016428;28;20030;-82
2023/08/07 04:26:59;;;;;;;18.00;5.63;;;;;;;13.03;100.00;101295.16;5034368;28;20029;-82
2023/08/07 04:29:25;;;;;;;13.75;5.00;;;;;;;13.03;100.00;101304.97;5015698;28;20040;-82
2023/08/07 04:31:50;;;;;;;12.73;4.95;;;;;;;13.00;100.00;101299.81;5033852;28;20022;-82
2023/08/07 04:34:16;;;;;;;12.50;5.32;;;;;;;12.98;100.00;101299.94;5015684;28;20522;-82
2023/08/07 04:36:41;;;;;;;18.85;5.47;;;;;;;12.87;100.00;101289.97;5032872;28;20033;-82
2023/08/07 04:39:09;;;;;;;18.45;5.68;;;;;;;12.92;100.00;101292.34;5015585;28;20028;-82
2023/08/07 04:41:34;;;;;;;12.35;5.20;;;;;;;12.95;100.00;101293.00;5034146;28;20029;-82
2023/08/07 04:43:59;;;;;;;14.82;5.53;;;;;;;12.93;100.00;101310.06;5015800;28;20508;-82
2023/08/07 04:46:25;;;;;;;9.80;4.50;;;;;;;12.92;100.00;101306.53;5015849;28;20042;-82
2023/08/07 04:48:50;;;;;;;11.18;4.97;;;;;;;12.95;100.00;101302.81;5006852;28;20109;-82
2023/08/07 04:51:16;;;;;;;17.17;5.97;;;;;;;13.02;100.00;101306.78;5013672;28;20057;-82
2023/08/07 04:53:44;;;;;;;13.07;4.70;;;;;;;12.95;100.00;101295.66;4995439;28;20076;-82
2023/08/07 04:56:09;;;;;;;6.05;2.45;;;;;;;13.09;100.00;101304.59;5013834;28;20029;-82
2023/08/07 04:58:34;;;;;;;15.23;5.65;;;;;;;13.03;100.00;101302.28;5012309;28;20025;-82
2023/08/07 05:01:00;;;;;;;16.33;4.85;;;;;;;13.03;100.00;101311.19;5012373;28;20080;-82
2023/08/07 05:03:26;;;;;;;11.52;4.82;;;;;;;13.06;100.00;101308.31;5013412;28;20030;-82
2023/08/07 05:05:58;;;;;;;11.15;4.68;;;;;;;13.11;100.00;101316.84;5012202;28;20029;-81
2023/08/07 05:08:24;;;;;;;11.93;4.35;;;;;;;13.10;100.00;101314.31;4995010;28;20026;-81
2023/08/07 05:10:51;;;;;;;11.95;4.05;;;;;;;13.01;100.00;101306.91;5013536;28;20079;-82
2023/08/07 05:13:19;;;;;;;13.18;4.10;;;;;;;13.03;100.00;101304.97;5012092;28;20029;-82
2023/08/07 05:15:48;;;;;;;12.43;4.57;;;;;;;13.00;98.82;101322.06;4995887;28;20495;-82
2023/08/07 05:18:14;;;;;;;7.63;4.23;;;;;;;13.03;99.84;101316.53;5011979;28;20026;-82
2023/08/07 05:20:39;;;;;;;7.32;4.50;;;;;;;13.04;99.25;101328.06;4995786;28;20473;-82
2023/08/07 05:23:05;;;;;;;11.40;4.30;;;;;;;13.03;99.29;101332.56;5012963;28;20033;-82
2023/08/07 05:25:33;;;;;;;13.63;4.18;;;;;;;13.04;99.32;101336.94;5011723;28;20038;-82
2023/08/07 05:27:59;;;;;;;9.77;4.35;;;;;;;13.00;100.00;101318.53;4995446;28;20459;-82
2023/08/07 05:30:24;;;;;;;10.85;4.20;;;;;;;13.06;99.77;101337.69;5011819;28;20125;-82
2023/08/07 05:32:49;;;;;;;10.30;3.92;;;;;;;13.03;100.00;101340.56;4995550;28;20041;-82
2023/08/07 05:35:15;;;;;;;14.35;5.55;;;;;;;13.08;100.00;101342.91;5011673;28;20448;-82
2023/08/07 05:37:41;;;;;;;13.20;4.90;;;;;;;12.67;100.00;101279.72;5011741;28;20025;-82
2023/08/07 05:40:07;;;;;;;13.88;4.85;;;;;;;13.08;98.89;101356.25;5012847;28;20396;-82
2023/08/07 05:42:32;;;;;;;12.60;4.43;;;;;;;13.01;99.51;101331.78;5012973;28;20087;-82
2023/08/07 05:44:58;;;;;;;13.65;4.78;;;;;;;13.08;100.00;101356.25;5012788;28;20079;-81
2023/08/07 05:47:24;;;;;;;13.82;4.90;;;;;;;13.11;100.00;101361.41;5012148;28;20057;-81
2023/08/07 05:49:52;;;;;;;14.00;4.97;;;;;;;13.12;98.96;101361.31;5014839;28;20032;-82
2023/08/07 05:52:17;;;;;;;17.30;5.25;;;;;;;13.08;100.00;101356.25;5014591;28;20022;-82
2023/08/07 05:54:43;;;;;;;8.55;2.90;;;;;;;13.21;100.00;101377.69;5014298;28;20524;-82
2023/08/07 05:57:08;;;;;;;13.45;4.68;;;;;;;13.15;100.00;101382.50;5032736;28;20177;-82
2023/08/07 05:59:34;;;;;;;9.50;4.43;;;;;;;13.06;100.00;101361.72;5032447;28;20025;-82
2023/08/07 06:02:00;;;;;;;18.02;5.13;;;;;;;13.10;100.00;101373.06;5014594;28;20029;-82
2023/08/07 06:04:28;;;;;;;11.88;4.43;;;;;;;13.18;100.00;101370.75;5014589;28;20137;-82
2023/08/07 06:06:53;;;;;;;15.05;4.72;;;;;;;13.22;100.00;101377.59;5032384;28;20104;-81
2023/08/07 06:09:21;;;;;;;23.77;3.13;;;;;;;13.31;99.71;101378.84;5032129;28;20552;-82
2023/08/07 06:11:47;;;;;;;16.55;4.47;;;;;;;13.30;98.64;101382.47;5032319;28;20071;-82
2023/08/07 06:14:15;;;;;;;19.15;5.13;;;;;;;13.29;98.08;101381.59;5014250;28;20018;-81
2023/08/07 06:16:41;;;;;;;11.77;4.43;;;;;;;13.28;98.74;101382.56;5032265;28;20026;-81
2023/08/07 06:19:07;;;;;;;13.15;4.43;;;;;;;13.32;96.93;101380.53;5014152;28;20025;-81
2023/08/07 06:21:35;;;;;;;15.10;4.88;;;;;;;13.33;98.32;101383.13;5014384;28;20104;-82
2023/08/07 06:24:01;;;;;;;14.30;4.53;;;;;;;13.43;97.83;101380.69;5013712;28;20663;-81
2023/08/07 06:26:26;;;;;;;15.45;4.63;;;;;;;13.48;97.76;101388.41;5032109;28;20096;-81
2023/08/07 06:28:51;;;;;;;11.32;4.13;;;;;;;13.54;97.56;101379.97;5014192;28;20018;-81
2023/08/07 06:31:18;;;;;;;15.88;4.45;;;;;;;13.57;93.83;101385.97;5031974;28;20116;-81
2023/08/07 06:33:43;;;;;;;14.48;4.68;;;;;;;13.59;95.22;101375.19;5013939;28;20179;-81
2023/08/07 06:36:08;;;;;;;12.45;3.97;;;;;;;13.70;93.63;101399.34;5013958;28;20124;-81
2023/08/07 06:38:34;;;;;;;12.30;4.20;;;;;;;13.78;94.46;101409.53;5031424;28;20026;-81
2023/08/07 06:41:02;;;;;;;14.63;4.15;;;;;;;13.77;95.26;101406.03;5031894;28;20615;-81
2023/08/07 06:43:28;;;;;;;14.93;3.92;;;;;;;13.80;93.78;101408.50;5014001;28;20030;-81
2023/08/07 06:45:58;;;;;;;13.68;4.13;;;;;;;13.83;94.21;101410.94;5014084;28;20061;-81
2023/08/07 06:48:24;;;;;;;15.95;4.10;;;;;;;13.80;93.22;101397.78;5031389;28;20038;-80
2023/08/07 06:50:50;;;;;;;14.23;4.30;;;;;;;13.83;92.17;101404.75;5014154;28;20018;-81
2023/08/07 06:53:16;;;;;;;11.90;4.30;;;;;;;13.88;93.85;101404.41;5031541;28;20029;-81
2023/08/07 06:55:42;;;;;;;13.07;3.97;;;;;;;13.90;94.10;101398.00;5013876;28;20104;-81
2023/08/07 06:58:08;;;;;;;11.88;3.65;;;;;;;14.05;92.43;101412.16;5014130;28;20112;-81
2023/08/07 07:00:37;;;;;;;14.80;3.95;;;;;;;14.07;91.97;101403.06;5034342;28;20021;-81
2023/08/07 07:03:03;;;;;;;14.57;3.93;;;;;;;14.21;90.44;101417.31;5035313;28;20388;-81
2023/08/07 07:05:30;;;;;;;12.98;4.20;;;;;;;14.25;89.81;101419.66;5017481;28;20033;-81
2023/08/07 07:07:56;;;;;;;13.48;3.90;;;;;;;14.30;90.16;101422.88;5017571;28;20022;-81
2023/08/07 07:10:21;;;;;;;12.05;3.50;;;;;;;14.40;89.47;101425.75;5017028;28;20025;-81
2023/08/07 07:12:48;;;;;;;11.80;3.70;;;;;;;14.39;90.31;101421.38;5017363;28;20021;-81
2023/08/07 07:15:13;;;;;;;19.13;3.80;;;;;;;14.50;90.73;101407.22;5035126;28;20040;-81
2023/08/07 07:17:39;;;;;;;11.60;3.55;;;;;;;14.81;90.22;101415.81;5035234;28;20485;-82
2023/08/07 07:20:05;;;;;;;16.50;3.92;;;;;;;14.93;89.66;101417.59;5017209;28;20029;-81
2023/08/07 07:22:30;;;;;;;11.07;3.50;;;;;;;14.97;88.33;101427.09;5017338;28;20025;-81
2023/08/07 07:25:01;;;;;;;11.77;3.40;;;;;;;14.92;88.16;101426.59;5034629;28;20067;-82
2023/08/07 07:27:26;;;;;;;16.42;3.83;;;;;;;14.89;88.28;101427.69;5017151;28;20087;-82
2023/08/07 07:29:54;;;;;;;16.38;3.25;;;;;;;14.85;89.52;101441.38;5034836;28;20025;-82
2023/08/07 07:32:20;;;;;;;11.95;3.83;;;;;;;14.85;88.28;101442.25;5017154;28;20473;-82
2023/08/07 07:34:45;;;;;;;11.63;3.78;;;;;;;14.80;86.66;101428.34;5017084;28;20037;-82
2023/08/07 07:37:14;;;;;;;10.23;3.50;;;;;;;14.86;85.22;101448.47;5034941;28;20026;-81
2023/08/07 07:39:42;;;;;;;14.32;3.78;;;;;;;14.70;85.84;101432.63;5034695;28;20021;-82
2023/08/07 07:42:07;;;;;;;11.68;3.50;;;;;;;14.79;86.10;101450.72;5017159;28;20024;-82
2023/08/07 07:44:39;;;;;;;12.35;3.53;;;;;;;14.81;85.58;101450.63;5016853;28;20021;-82
2023/08/07 07:47:05;;;;;;;12.88;3.75;;;;;;;14.86;82.93;101449.31;5016565;28;20049;-82
2023/08/07 07:49:32;;;;;;;9.57;2.95;;;;;;;14.99;83.99;101455.50;5020169;28;20121;-81
2023/08/07 07:52:00;;;;;;;11.63;3.35;;;;;;;15.02;85.09;101453.56;4997349;28;20049;-81
2023/08/07 07:54:28;;;;;;;10.25;3.42;;;;;;;15.08;83.50;101474.56;4996589;28;20029;-82
2023/08/07 07:56:53;;;;;;;9.57;2.90;;;;;;;15.09;84.14;101469.13;5014828;28;20030;-81
2023/08/07 07:59:19;;;;;;;9.38;3.28;;;;;;;15.07;82.89;101468.34;5013427;28;20025;-82
2023/08/07 08:01:44;;;;;;;16.83;4.45;;;;;;;15.07;81.30;101484.44;5014617;28;20029;-82
2023/08/07 08:04:10;;;;;;;10.68;3.42;;;;;;;15.12;82.52;101489.47;4997224;28;20030;-82
2023/08/07 08:06:36;;;;;;;10.57;3.50;;;;;;;15.15;83.58;101489.25;5014888;28;20030;-82
2023/08/07 08:09:04;;;;;;;13.07;3.80;;;;;;;15.03;84.30;101474.91;5014035;28;20030;-81
2023/08/07 08:11:30;;;;;;;15.63;3.58;;;;;;;15.28;82.93;101484.69;5013255;28;20037;-81
2023/08/07 08:13:56;;;;;;;11.48;4.00;;;;;;;15.39;80.64;101489.28;4997007;28;20034;-81
2023/08/07 08:16:24;;;;;;;13.20;3.78;;;;;;;15.61;80.14;101494.75;4996829;28;20036;-81
2023/08/07 08:18:49;;;;;;;11.27;3.45;;;;;;;15.90;80.84;101481.91;5015636;28;20446;-81
2023/08/07 08:21:15;;;;;;;11.13;3.28;;;;;;;16.15;79.94;101492.59;5015463;28;20109;-82
2023/08/07 08:23:40;;;;;;;12.95;3.40;;;;;;;16.53;79.70;101490.50;5014890;28;20029;-82
2023/08/07 08:26:06;;;;;;;8.75;3.10;;;;;;;16.64;77.01;101481.59;5015605;28;20108;-82
2023/08/07 08:28:31;;;;;;;10.77;2.90;;;;;;;16.65;72.28;101477.06;5014019;28;20044;-82
2023/08/07 08:30:57;;;;;;;9.15;3.00;;;;;;;16.76;71.06;101501.28;4997224;28;20543;-82
2023/08/07 08:33:22;;;;;;;9.80;2.97;;;;;;;16.72;71.04;101499.81;5012808;28;20405;-82
2023/08/07 08:35:48;;;;;;;12.75;3.10;;;;;;;16.64;71.43;101500.41;4996505;28;20029;-82
2023/08/07 08:38:13;;;;;;;11.50;2.95;;;;;;;16.95;68.54;101498.03;5012487;28;20025;-82
2023/08/07 08:40:40;;;;;;;6.97;2.60;;;;;;;17.12;66.25;101510.09;4980026;28;20373;-82
2023/08/07 08:43:05;;;;;;;13.55;3.15;;;;;;;17.12;67.91;101518.16;4996173;28;20113;-82
2023/08/07 08:45:34;;;;;;;11.77;3.63;;;;;;;17.08;65.51;101497.91;5013620;28;20072;-82
2023/08/07 08:48:04;;;;;;;11.38;2.92;;;;;;;17.07;67.00;101521.22;5013530;28;20046;-82
2023/08/07 08:50:30;;;;;;;9.90;3.03;;;;;;;16.97;66.10;101523.81;5033594;28;20083;-82
2023/08/07 08:52:56;;;;;;;10.50;2.80;;;;;;;16.79;66.81;101515.38;5033502;28;20017;-82
2023/08/07 08:55:23;;;;;;;12.82;3.40;;;;;;;16.56;67.70;101516.28;5015293;28;20128;-82
2023/08/07 08:57:53;;;;;;;8.32;3.17;;;;;;;16.52;67.56;101529.06;5015840;28;20014;-82
2023/08/07 09:00:21;;;;;;;9.95;3.22;;;;;;;16.75;68.10;101524.59;5033199;28;20032;-82
2023/08/07 09:02:50;;;;;;;8.45;3.00;;;;;;;17.11;64.07;101527.22;5033395;28;20025;-82
2023/08/07 09:05:19;;;;;;;6.57;2.92;;;;;;;17.23;62.04;101512.78;5015231;28;20032;-82
2023/08/07 09:07:46;;;;;;;10.27;3.03;;;;;;;17.53;61.08;101536.34;5015554;28;20494;-82
2023/08/07 09:10:13;;;;;;;6.63;2.78;;;;;;;17.84;62.02;101533.84;5014877;28;20029;-82
2023/08/07 09:12:42;;;;;;;8.20;3.08;;;;;;;18.07;59.11;101538.19;5033443;28;20029;-82
2023/08/07 09:15:09;;;;;;;8.63;2.88;;;;;;;18.20;59.56;101534.44;5033168;28;20116;-82
2023/08/07 09:17:40;;;;;;;9.00;2.88;;;;;;;18.42;60.16;101538.88;5015480;28;20032;-83
2023/08/07 09:20:16;;;;;;;7.68;3.00;;;;;;;18.39;59.16;101548.06;5015331;28;20044;-82
2023/08/07 09:22:43;;;;;;;11.88;2.65;;;;;;;18.08;56.74;101544.41;5014970;28;20025;-82
2023/08/07 09:25:13;;;;;;;5.32;2.40;;;;;;;17.92;58.46;101528.69;5032991;28;20033;-83
2023/08/07 09:27:38;;;;;;;;;;;;;;;18.23;60.12;101542.25;5033617;28;20079;-83
2023/08/07 09:30:10;;;;;;;8.00;3.05;;;;;;;18.38;58.00;101554.44;5015125;28;19908;-82
2023/08/07 09:32:38;;;;;;;9.57;3.10;;;;;;;18.31;55.40;101553.25;5032987;28;20033;-82
2023/08/07 09:35:04;;;;;;;8.85;2.53;;;;;;;18.46;55.84;101546.56;5014961;28;20342;-82
2023/08/07 09:37:30;;;;;;;8.07;2.78;;;;;;;18.36;57.15;101532.19;5015244;28;20090;-82
2023/08/07 09:39:57;;;;;;;13.65;2.95;;;;;;;18.66;59.17;101535.91;5014815;28;20029;-82
2023/08/07 09:42:27;;;;;;;6.82;2.78;;;;;;;18.62;57.96;101532.66;5014862;28;20025;-81
2023/08/07 09:44:53;;;;;;;5.35;2.70;;;;;;;19.03;56.19;101545.25;5014874;28;20033;-82
2023/08/07 09:47:19;;;;;;;7.18;2.55;;;;;;;18.74;55.99;101537.00;5032604;28;20091;-83
2023/08/07 09:49:48;;;;;;;10.38;2.83;;;;;;;18.77;56.79;101562.84;5032336;28;20061;-82
2023/08/07 09:52:15;;;;;;;10.60;2.83;;;;;;;18.82;55.13;101569.53;5016578;28;20064;-82
2023/08/07 09:54:43;;;;;;;5.47;2.45;;;;;;;19.09;56.60;101561.84;5014502;28;20017;-82
2023/08/07 09:57:09;;;;;;;6.28;3.03;;;;;;;19.05;53.71;101561.28;5014866;28;20025;-82
2023/08/07 09:59:34;;;;;;;6.95;2.50;;;;;;;19.30;54.61;101557.28;5014819;28;20052;-82
2023/08/07 10:02:04;;;;;;;8.95;3.05;;;;;;;19.57;57.59;101556.66;5014926;28;20036;-81
2023/08/07 10:04:33;;;;;;;10.07;3.17;;;;;;;19.77;53.36;101570.25;5032271;28;20017;-82
2023/08/07 10:07:03;;;;;;;6.80;2.42;;;;;;;19.83;52.33;101572.38;5032367;28;20034;-81
2023/08/07 10:09:30;;;;;;;7.80;2.60;;;;;;;19.83;49.91;101566.97;5031735;28;20025;-82
2023/08/07 10:11:55;;;;;;;7.03;2.50;;;;;;;19.92;49.96;101552.63;5014631;28;20136;-82
2023/08/07 10:14:24;;;;;;;6.80;2.75;;;;;;;19.88;50.73;101570.09;5014690;28;20473;-82
2023/08/07 10:16:51;;;;;;;5.55;2.30;;;;;;;19.67;51.09;101559.41;5032511;28;20063;-82
2023/08/07 10:19:21;;;;;;;4.57;2.20;;;;;;;20.07;52.88;101582.78;5014380;28;20025;-82
2023/08/07 10:21:51;;;;;;;6.45;2.30;;;;;;;19.79;49.36;101579.03;5032321;28;20503;-81
2023/08/07 10:24:18;;;;;;;10.82;3.22;;;;;;;19.78;50.93;101569.22;5031645;28;20400;-82
2023/08/07 10:26:48;;;;;;;4.50;2.92;;;;;;;19.80;47.10;101586.16;5032237;28;20037;-82
2023/08/07 10:29:18;;;;;;;8.20;2.97;;;;;;;19.84;49.16;101572.22;5031971;28;20464;-81
2023/08/07 10:31:44;;;;;;;4.00;2.60;;;;;;;20.16;49.71;101568.44;5014371;28;20029;-81
2023/08/07 10:34:12;;;;;;;14.15;3.30;;;;;;;20.34;48.81;101579.38;5032704;28;20429;-82
2023/08/07 10:36:40;;;;;;;3.67;2.55;;;;;;;20.49;47.25;101571.69;5036159;28;20112;-82
2023/08/07 10:39:11;;;;;;;9.50;2.63;;;;;;;20.52;47.89;101577.69;5018069;28;20028;-82
2023/08/07 10:41:42;;;;;;;7.80;2.30;;;;;;;20.13;47.88;101585.75;5018410;28;20484;-82
2023/08/07 10:44:32;;;;;;;6.80;2.47;;;;;;;20.19;50.95;101601.41;5018336;28;20021;-83
2023/08/07 10:46:58;;;;;;;7.60;3.08;;;;;;;20.20;48.47;101599.56;5018250;28;20045;-82
2023/08/07 10:49:29;;;;;;;7.50;2.60;;;;;;;20.32;48.73;101597.56;5017657;28;20404;-82
2023/08/07 10:51:55;;;;;;;8.57;2.60;;;;;;;20.27;47.58;101580.94;5035921;28;20021;-82
2023/08/07 10:54:20;;;;;;;7.38;2.75;;;;;;;20.39;49.15;101588.75;5017455;28;20075;-82
2023/08/07 10:56:52;;;;;;;6.30;2.72;;;;;;;20.69;47.55;101592.31;5035533;28;20484;-82
2023/08/07 10:59:18;;;;;;;7.28;2.60;;;;;;;20.46;47.02;101578.22;5017882;28;20025;-81
2023/08/07 11:01:52;;;;;;;4.47;2.65;;;;;;;20.76;44.61;101576.38;5018040;28;20021;-82
2023/08/07 11:04:24;;;;;;;5.70;2.70;;;;;;;20.91;46.51;101595.69;5017822;28;20060;-82
2023/08/07 11:06:50;;;;;;;12.70;2.47;;;;;;;20.81;46.04;101601.97;5035543;28;20080;-81
2023/08/07 11:09:15;;;;;;;7.15;2.38;;;;;;;20.83;46.36;101601.84;5034777;28;20587;-82
2023/08/07 11:11:49;;;;;;;6.47;3.03;;;;;;;21.07;46.18;101602.19;5035750;28;20036;-82
2023/08/07 11:14:21;;;;;;;8.27;2.55;;;;;;;21.37;47.75;101594.88;5035153;28;20429;-82